Time;durP1;ratioP1;P1;durP2;ratioP2;P2;SDS_P1;SDS_P2;PMS_P1;PMS_P2;Temp;Humidity;BMP_temperature;BMP_pressure;BME280_temperature;BME280_humidity;BME280_pressure;Samples;Min_cycle;Max_cycle;Signal;HPM_P1;HPM_P2
2024/03/12 00:46:04;;;;;;;0.52;0.50;;;;;;;9.08;100.00;99075.81;4838511;29;20075;-90
2024/03/12 00:53:55;;;;;;;2.47;0.45;;;;;;;9.18;100.00;99057.16;4859129;29;20080;-90
2024/03/12 01:05:46;;;;;;;0.57;0.40;;;;;;;9.36;100.00;99058.75;4859022;29;20093;-91
2024/03/12 02:59:01;;;;;;;2.88;0.22;;;;;;;10.15;100.00;99002.38;4860350;29;20106;-90
2024/03/12 03:05:46;;;;;;;;;;;;;;;;;;;;;
2024/03/12 03:09:26;;;;;;;1.60;0.25;;;;;;;10.13;100.00;99007.03;4862256;29;20049;-91
2024/03/12 03:15:20;;;;;;;5.47;0.40;;;;;;;10.16;100.00;99005.88;4760367;30;20146;-90
2024/03/12 03:18:16;;;;;;;2.67;0.47;;;;;;;10.23;100.00;99006.78;4775172;30;20506;-90
2024/03/12 03:24:59;;;;;;;5.13;0.40;;;;;;;10.16;100.00;98988.19;4762425;29;20043;-91
2024/03/12 03:28:27;;;;;;;2.20;0.47;;;;;;;10.30;100.00;99010.34;4749593;30;20074;-95
2024/03/12 03:32:05;;;;;;;;;;;;;;;;;;;;;
2024/03/12 03:35:17;;;;;;;0.98;0.45;;;;;;;10.26;100.00;99008.25;4736614;30;20054;-96
2024/03/12 04:18:10;;;;;;;13.00;1.50;;;;;;;9.08;100.00;99038.09;4807967;29;20544;-94
2024/03/12 04:40:23;;;;;;;;;;;;;;;;;;;;;
2024/03/12 04:43:43;;;;;;;7.95;1.10;;;;;;;9.17;100.00;99066.06;4742359;30;20064;-96
2024/03/12 05:21:29;;;;;;;9.13;1.65;;;;;;;9.12;100.00;99086.84;4784025;29;20232;-92
2024/03/12 07:00:22;;;;;;;;;;;;;;;;;;;;;
2024/03/12 07:55:52;;;;;;;;;;;;;;;;;;;;;
2024/03/12 07:59:42;;;;;;;;;;;;;;;;;;;;;
2024/03/12 08:03:11;;;;;;;4.95;0.95;;;;;;;9.14;100.00;99190.31;4714390;30;20100;-92
2024/03/12 08:14:00;;;;;;;;;;;;;;;8.99;100.00;99198.03;4773740;30;20054;-92
2024/03/12 08:17:07;;;;;;;7.65;1.00;;;;;;;8.99;100.00;99201.53;4772559;30;19925;-91
2024/03/12 08:20:32;;;;;;;5.28;0.90;;;;;;;9.08;100.00;99196.25;4769149;29;20039;-92
2024/03/12 08:23:34;;;;;;;4.68;0.90;;;;;;;9.06;100.00;99199.84;4811796;29;20077;-92
2024/03/12 08:27:09;;;;;;;6.28;0.70;;;;;;;9.12;100.00;99202.81;4820353;29;20132;-92
2024/03/12 08:38:54;;;;;;;6.22;1.17;;;;;;;9.36;100.00;99212.53;4835729;29;20481;-88
2024/03/12 08:50:45;;;;;;;3.33;0.88;;;;;;;9.73;100.00;99214.78;4713359;30;20079;-89
2024/03/12 08:58:40;;;;;;;9.18;1.08;;;;;;;10.16;100.00;99209.19;4797246;29;20046;-87
2024/03/12 09:02:39;;;;;;;5.78;0.93;;;;;;;10.26;100.00;99208.94;4800602;29;20064;-86
2024/03/12 09:05:34;;;;;;;8.07;0.93;;;;;;;10.26;100.00;99212.41;4836171;29;20054;-87
2024/03/12 09:08:39;;;;;;;7.45;0.75;;;;;;;10.30;100.00;99218.97;4808163;29;20043;-85
2024/03/12 09:11:26;;;;;;;7.05;0.70;;;;;;;10.34;100.00;99223.91;4805178;29;21306;-86
2024/03/12 09:14:01;;;;;;;6.03;1.13;;;;;;;10.20;100.00;99218.38;4826551;29;20034;-86
2024/03/12 09:16:46;;;;;;;11.90;1.45;;;;;;;10.30;100.00;99232.19;4840879;29;20049;-87
2024/03/12 09:19:24;;;;;;;6.18;1.27;;;;;;;10.30;100.00;99228.75;4806782;29;20119;-85
2024/03/12 09:21:58;;;;;;;11.18;2.35;;;;;;;10.24;100.00;99227.59;4813390;29;20136;-86
2024/03/12 09:24:47;;;;;;;7.75;1.17;;;;;;;10.28;100.00;99230.72;4824681;29;20048;-86
2024/03/12 09:30:57;;;;;;;9.68;1.00;;;;;;;10.27;100.00;99221.16;4833840;29;20105;-87
2024/03/12 09:33:28;;;;;;;3.60;1.17;;;;;;;10.29;100.00;99217.34;4839332;29;20042;-87
2024/03/12 09:36:01;;;;;;;7.72;0.60;;;;;;;10.35;100.00;99246.72;4823570;29;20056;-85
2024/03/12 09:38:34;;;;;;;5.70;0.95;;;;;;;10.41;100.00;99232.81;4805972;29;20050;-87
2024/03/12 09:41:12;;;;;;;6.75;1.10;;;;;;;10.52;100.00;99235.09;4834285;29;20049;-86
2024/03/12 09:43:54;;;;;;;8.57;1.17;;;;;;;10.58;100.00;99233.56;4818280;29;20134;-90
2024/03/12 09:46:36;;;;;;;7.88;1.65;;;;;;;10.71;100.00;99240.09;4799362;29;20088;-89
2024/03/12 09:49:22;;;;;;;9.45;0.93;;;;;;;10.78;100.00;99233.94;4824976;29;20053;-87
2024/03/12 09:53:01;;;;;;;10.23;0.85;;;;;;;11.07;100.00;99246.63;4812327;29;20133;-87
2024/03/12 09:59:41;;;;;;;5.40;0.80;;;;;;;11.30;100.00;99257.19;4818749;29;20776;-87
2024/03/12 10:02:10;;;;;;;7.20;0.90;;;;;;;11.26;100.00;99256.72;4837323;29;20030;-86
2024/03/12 10:04:44;;;;;;;6.00;0.95;;;;;;;11.23;100.00;99245.66;4816972;29;20049;-85
2024/03/12 10:07:15;;;;;;;5.30;1.17;;;;;;;11.25;100.00;99246.31;4823062;29;20066;-86
2024/03/12 10:09:50;;;;;;;5.35;1.52;;;;;;;11.27;100.00;99231.91;4795699;29;20062;-83
2024/03/12 10:12:21;;;;;;;5.90;0.88;;;;;;;11.31;100.00;99248.25;4814715;29;20136;-85
2024/03/12 10:14:56;;;;;;;5.50;1.17;;;;;;;11.35;100.00;99238.97;4800747;29;20039;-84
2024/03/12 10:18:16;;;;;;;7.45;0.80;;;;;;;11.29;100.00;99245.78;4822897;29;20053;-84
2024/03/12 10:20:49;;;;;;;8.70;1.15;;;;;;;11.28;100.00;99244.13;4817622;29;20414;-86
2024/03/12 10:23:25;;;;;;;6.20;0.98;;;;;;;11.25;100.00;99239.19;4828580;29;20041;-86
2024/03/12 10:26:30;;;;;;;;;;;;;;;;;;;;;
2024/03/12 10:29:18;;;;;;;5.90;1.02;;;;;;;11.22;100.00;99254.59;4838539;29;20418;-85
2024/03/12 10:32:34;;;;;;;4.28;1.15;;;;;;;11.11;100.00;99250.56;4835405;29;20128;-84
2024/03/12 10:35:20;;;;;;;9.05;1.20;;;;;;;11.08;100.00;99251.75;4817928;29;20057;-86
2024/03/12 10:38:01;;;;;;;8.05;1.40;;;;;;;11.03;100.00;99244.34;4808775;29;20089;-85
2024/03/12 10:40:56;;;;;;;4.18;0.73;;;;;;;11.06;100.00;99261.66;4826037;29;20515;-84
2024/03/12 10:47:19;;;;;;;6.43;1.08;;;;;;;11.12;100.00;99249.53;4837849;29;20060;-85
2024/03/12 10:49:48;;;;;;;4.72;0.93;;;;;;;11.14;100.00;99253.69;4848880;29;20052;-83
2024/03/12 10:52:23;;;;;;;2.60;0.50;;;;;;;11.12;100.00;99246.91;4850413;29;20069;-84
2024/03/12 10:55:03;;;;;;;4.03;0.98;;;;;;;11.10;100.00;99244.44;4835698;29;20069;-84
2024/03/12 10:57:40;;;;;;;4.18;0.50;;;;;;;11.12;100.00;99252.19;4840345;29;20041;-85
2024/03/12 11:00:20;;;;;;;6.55;1.00;;;;;;;11.14;100.00;99258.97;4825269;29;20402;-85
2024/03/12 11:02:59;;;;;;;6.38;0.52;;;;;;;11.19;100.00;99250.50;4817828;29;20042;-85
2024/03/12 11:05:42;;;;;;;6.15;0.93;;;;;;;11.16;100.00;99248.22;4839586;29;20069;-84
2024/03/12 11:12:23;;;;;;;3.65;0.88;;;;;;;11.24;100.00;99261.38;4832221;29;20067;-84
2024/03/12 11:15:18;;;;;;;4.80;0.60;;;;;;;11.27;100.00;99268.97;4831067;29;20761;-84
2024/03/12 11:18:06;;;;;;;5.00;0.57;;;;;;;11.33;100.00;99262.13;4830649;29;20029;-85
2024/03/12 11:20:44;;;;;;;6.20;0.70;;;;;;;11.35;100.00;99264.59;4806865;29;20050;-85
2024/03/12 11:24:08;;;;;;;4.45;0.50;;;;;;;11.45;100.00;99270.44;4817656;29;20049;-86
2024/03/12 11:27:43;;;;;;;4.57;0.40;;;;;;;11.51;100.00;99269.75;4782224;29;20058;-85
2024/03/12 11:30:17;;;;;;;5.03;0.73;;;;;;;11.57;100.00;99264.72;4814936;29;20046;-84
2024/03/12 11:42:11;;;;;;;4.50;1.10;;;;;;;11.82;100.00;99275.88;4834735;29;20049;-85
2024/03/12 11:45:54;;;;;;;4.45;1.02;;;;;;;11.90;100.00;99259.91;4836285;29;20085;-85
2024/03/12 11:53:28;;;;;;;;;;;;;;;;;;;;;
2024/03/12 11:59:08;;;;;;;2.47;0.40;;;;;;;12.14;100.00;99257.19;4802500;29;20260;-83
2024/03/12 12:01:55;;;;;;;1.73;0.43;;;;;;;12.28;100.00;99260.81;4824825;29;20084;-87
2024/03/12 12:04:30;;;;;;;1.43;0.20;;;;;;;12.30;100.00;99265.94;4804863;29;20030;-82
2024/03/12 12:07:27;;;;;;;1.30;0.17;;;;;;;12.38;100.00;99265.84;4833101;29;20105;-84
2024/03/12 12:12:51;;;;;;;1.48;0.22;;;;;;;12.45;100.00;99248.22;4816163;29;20186;-85
2024/03/12 12:15:23;;;;;;;0.98;0.20;;;;;;;12.39;100.00;99247.09;4824704;29;20050;-84
2024/03/12 12:18:14;;;;;;;1.20;0.30;;;;;;;12.49;100.00;99256.59;4820990;29;20046;-84
2024/03/12 12:20:40;;;;;;;1.80;0.25;;;;;;;12.48;100.00;99253.13;4805800;29;20044;-87
2024/03/12 12:23:13;;;;;;;2.00;0.20;;;;;;;12.52;100.00;99251.75;4835769;29;20049;-86
2024/03/12 12:25:56;;;;;;;0.80;0.20;;;;;;;12.51;100.00;99255.41;4823610;29;20075;-87
2024/03/12 12:28:54;;;;;;;1.42;0.38;;;;;;;12.59;100.00;99245.69;4836799;29;20041;-86
2024/03/12 12:31:23;;;;;;;1.27;0.20;;;;;;;12.67;100.00;99247.41;4806929;29;20100;-84
2024/03/12 12:33:52;;;;;;;0.60;0.15;;;;;;;12.77;100.00;99253.22;4821399;29;20071;-87
2024/03/12 12:36:31;;;;;;;3.05;1.13;;;;;;;12.86;100.00;99248.63;4817893;29;20053;-87
2024/03/12 12:39:09;;;;;;;2.50;0.40;;;;;;;12.93;100.00;99243.38;4810145;29;20106;-86
2024/03/12 12:41:42;;;;;;;1.13;0.30;;;;;;;13.01;100.00;99252.03;4816302;29;20034;-86
2024/03/12 12:44:27;;;;;;;0.43;0.10;;;;;;;13.08;100.00;99236.16;4838583;29;20038;-86
2024/03/12 12:46:54;;;;;;;1.15;0.20;;;;;;;13.20;100.00;99240.97;4817058;29;20046;-87
2024/03/12 12:49:24;;;;;;;0.93;0.30;;;;;;;13.28;100.00;99249.59;4807857;29;20046;-85
2024/03/12 12:51:54;;;;;;;0.85;0.25;;;;;;;13.30;100.00;99249.41;4820363;29;20387;-85
2024/03/12 13:00:27;;;;;;;2.72;0.30;;;;;;;13.31;100.00;99251.06;4817413;29;20045;-87
2024/03/12 13:03:16;;;;;;;0.63;0.10;;;;;;;13.35;100.00;99246.16;4792987;29;20097;-85
2024/03/12 13:05:44;;;;;;;;;;;;;;;13.27;100.00;99257.75;4823410;29;20069;-87
2024/03/12 13:08:22;;;;;;;0.55;0.20;;;;;;;13.38;100.00;99261.72;4810310;29;19923;-90
2024/03/12 13:11:18;;;;;;;0.80;0.10;;;;;;;13.36;100.00;99253.94;4819984;29;20145;-87
2024/03/12 13:14:26;;;;;;;1.40;0.38;;;;;;;13.37;100.00;99257.44;4770761;29;20058;-87
2024/03/12 13:17:11;;;;;;;1.80;0.22;;;;;;;13.38;100.00;99267.84;4809929;29;20053;-84
2024/03/12 13:19:49;;;;;;;1.17;0.20;;;;;;;13.44;100.00;99263.59;4821321;29;20034;-88
2024/03/12 13:22:18;;;;;;;0.35;0.10;;;;;;;13.38;100.00;99257.22;4820759;29;20051;-87
2024/03/12 13:24:55;;;;;;;1.73;0.25;;;;;;;13.33;100.00;99261.50;4820618;29;20046;-86
2024/03/12 13:27:21;;;;;;;0.95;0.20;;;;;;;13.36;100.00;99261.09;4849824;29;20037;-83
2024/03/12 13:29:47;;;;;;;0.68;0.10;;;;;;;13.37;100.00;99265.38;4789873;29;20058;-83
2024/03/12 13:32:23;;;;;;;0.75;0.20;;;;;;;13.33;100.00;99261.50;4820667;29;20394;-86
2024/03/12 13:35:08;;;;;;;0.43;0.10;;;;;;;13.42;100.00;99268.28;4825072;29;20496;-86
2024/03/12 13:37:39;;;;;;;7.00;5.70;;;;;;;13.39;100.00;99264.16;4815379;29;20082;-88
2024/03/12 13:40:05;;;;;;;3.42;2.67;;;;;;;13.34;100.00;99253.34;4826212;29;20101;-86
2024/03/12 13:42:36;;;;;;;2.22;2.03;;;;;;;13.45;100.00;99264.44;4832724;29;20053;-83
2024/03/12 13:45:10;;;;;;;0.77;0.38;;;;;;;13.46;100.00;99264.22;4816333;29;20042;-85
2024/03/12 13:47:42;;;;;;;1.52;0.63;;;;;;;13.57;100.00;99267.41;4815457;29;20046;-86
2024/03/12 13:50:08;;;;;;;1.95;0.43;;;;;;;13.72;100.00;99273.44;4850966;29;20037;-85
2024/03/12 13:52:37;;;;;;;0.22;0.20;;;;;;;13.77;100.00;99271.03;4843917;29;20085;-88
2024/03/12 13:55:11;;;;;;;0.73;0.40;;;;;;;13.78;100.00;99269.19;4832177;29;20038;-88
2024/03/12 13:57:39;;;;;;;2.72;0.20;;;;;;;13.72;100.00;99267.31;4807098;29;20057;-84
2024/03/12 14:00:16;;;;;;;0.75;0.30;;;;;;;13.64;100.00;99262.97;4800102;29;20038;-86
2024/03/12 14:02:49;;;;;;;18.50;16.55;;;;;;;13.69;100.00;99259.72;4802946;29;20053;-87
2024/03/12 14:06:05;;;;;;;;;;;;;;;;;;;;;
2024/03/12 14:09:34;;;;;;;7.35;6.22;;;;;;;13.68;100.00;99258.91;4785533;30;20043;-94
2024/03/12 14:12:09;;;;;;;6.95;5.55;;;;;;;13.74;100.00;99266.09;4799284;29;20042;-96
2024/03/12 14:14:41;;;;;;;12.18;10.63;;;;;;;13.73;100.00;99258.31;4798828;29;20046;-94
2024/03/12 14:17:28;;;;;;;6.82;5.93;;;;;;;13.82;100.00;99262.47;4813947;29;20050;-95
2024/03/12 14:19:55;;;;;;;7.55;6.55;;;;;;;13.80;100.00;99253.03;4791907;29;20050;-93
2024/03/12 14:23:02;;;;;;;;;;;;;;;;;;;;;
2024/03/12 14:26:16;;;;;;;9.52;7.45;;;;;;;13.86;100.00;99260.22;4839279;29;20030;-96
2024/03/12 14:28:54;;;;;;;16.35;14.48;;;;;;;13.84;100.00;99255.13;4852960;29;20072;-94
2024/03/12 14:31:45;;;;;;;11.25;10.10;;;;;;;13.81;100.00;99247.53;4836393;29;20049;-95
2024/03/12 14:34:36;;;;;;;4.10;2.20;;;;;;;13.80;100.00;99245.09;4830345;29;20029;-94
2024/03/12 14:37:06;;;;;;;1.40;0.90;;;;;;;13.70;100.00;99250.72;4825091;29;20417;-95
2024/03/12 14:40:00;;;;;;;0.90;0.90;;;;;;;13.72;100.00;99251.38;4828446;29;20034;-94
2024/03/12 14:43:25;;;;;;;2.13;0.80;;;;;;;13.66;100.00;99254.81;4828810;29;20048;-93
2024/03/12 14:46:17;;;;;;;2.97;1.10;;;;;;;13.57;100.00;99252.28;4834243;29;20037;-94
2024/03/12 14:49:19;;;;;;;2.70;2.50;;;;;;;13.55;100.00;99257.00;4832592;29;20101;-95
2024/03/12 14:52:10;;;;;;;0.47;0.47;;;;;;;13.54;100.00;99257.19;4825823;29;20045;-95
2024/03/12 14:54:37;;;;;;;1.45;1.35;;;;;;;13.53;100.00;99256.34;4824504;29;20050;-89
2024/03/12 14:57:03;;;;;;;0.63;0.50;;;;;;;13.52;100.00;99258.19;4825596;29;20070;-94
2024/03/12 14:59:55;;;;;;;1.95;1.00;;;;;;;13.59;100.00;99255.56;4812493;29;20045;-95
2024/03/12 15:02:34;;;;;;;11.13;9.57;;;;;;;13.56;100.00;99255.13;4842177;29;20029;-95
2024/03/12 15:08:22;;;;;;;4.00;3.67;;;;;;;13.57;100.00;99270.06;4844540;29;20037;-94
2024/03/12 15:10:54;;;;;;;10.70;9.70;;;;;;;13.60;100.00;99265.19;4835131;29;20595;-95
2024/03/12 15:13:20;;;;;;;8.00;6.93;;;;;;;13.54;100.00;99265.94;4846363;29;20052;-93
2024/03/12 15:16:11;;;;;;;15.50;13.73;;;;;;;13.58;100.00;99261.09;4826151;29;20037;-96
2024/03/12 15:19:40;;;;;;;8.05;7.20;;;;;;;13.50;100.00;99270.84;4815426;29;20035;-94
2024/03/12 15:27:35;;;;;;;1.58;1.48;;;;;;;13.37;100.00;99266.22;4842756;29;20478;-95
2024/03/12 15:30:51;;;;;;;2.97;1.90;;;;;;;13.35;100.00;99272.72;4796830;29;20042;-94
2024/03/12 15:33:38;;;;;;;2.08;1.88;;;;;;;13.34;100.00;99273.72;4807870;29;20065;-94
2024/03/12 15:36:05;;;;;;;3.13;1.58;;;;;;;13.39;100.00;99276.66;4800473;29;21551;-94
2024/03/12 15:38:39;;;;;;;4.15;1.85;;;;;;;13.39;100.00;99268.69;4807816;29;20046;-94
2024/03/12 15:45:43;;;;;;;2.72;2.53;;;;;;;13.52;100.00;99265.34;4845584;29;20393;-94
2024/03/12 15:53:24;;;;;;;;;;;;;;;;;;;;;
2024/03/12 15:56:37;;;;;;;2.90;1.20;;;;;;;13.56;100.00;99257.78;4824202;29;20560;-96
2024/03/12 16:00:24;;;;;;;8.90;5.35;;;;;;;13.51;100.00;99264.50;4798598;29;20042;-94
2024/03/12 16:02:54;;;;;;;4.20;3.67;;;;;;;13.52;100.00;99258.19;4812286;29;20122;-89
2024/03/12 16:05:35;;;;;;;5.60;4.68;;;;;;;13.53;100.00;99256.34;4810151;29;20064;-87
2024/03/12 16:08:37;;;;;;;10.23;9.23;;;;;;;13.57;100.00;99257.59;4793872;29;20046;-92
2024/03/12 16:11:27;;;;;;;27.00;15.18;;;;;;;13.57;100.00;99254.94;4797493;29;20044;-88
2024/03/12 16:14:04;;;;;;;23.85;15.93;;;;;;;13.54;100.00;99252.69;4800454;29;20034;-89
2024/03/12 16:16:40;;;;;;;19.85;16.10;;;;;;;13.46;100.00;99240.34;4829299;29;20796;-88
2024/03/12 16:24:57;;;;;;;3.92;2.50;;;;;;;13.47;100.00;99239.31;5114577;23;20060;-85
2024/03/12 16:27:32;;;;;;;10.95;6.30;;;;;;;13.50;100.00;99241.66;4857712;29;20037;-88
2024/03/12 16:30:18;;;;;;;2.47;1.02;;;;;;;13.52;100.00;99238.78;4835912;29;20037;-90
2024/03/12 16:32:44;;;;;;;;;;;;;;;13.47;100.00;99244.63;4816961;29;20137;-87
2024/03/12 16:35:35;;;;;;;10.05;6.45;;;;;;;13.51;100.00;99237.97;4838008;29;19927;-87
2024/03/12 16:38:01;;;;;;;19.08;11.68;;;;;;;13.51;100.00;99237.97;4822147;29;20060;-88
2024/03/12 16:40:59;;;;;;;16.75;11.38;;;;;;;13.58;100.00;99248.63;4841461;29;20041;-88
2024/03/12 16:44:02;;;;;;;16.80;11.43;;;;;;;13.59;100.00;99242.31;4832966;29;20039;-87
2024/03/12 16:51:07;;;;;;;26.05;13.50;;;;;;;13.51;100.00;99253.91;4855038;29;20477;-89
2024/03/12 16:53:56;;;;;;;13.90;7.72;;;;;;;13.52;100.00;99258.19;4837697;29;20041;-92
2024/03/12 16:56:22;;;;;;;21.80;10.20;;;;;;;13.44;100.00;99247.66;4846591;29;20037;-87
2024/03/12 16:58:48;;;;;;;19.00;8.55;;;;;;;13.44;100.00;99244.22;4826984;29;20068;-87
2024/03/12 17:01:24;;;;;;;17.02;6.80;;;;;;;13.41;100.00;99250.72;4840790;29;20037;-87
2024/03/12 17:04:02;;;;;;;11.00;3.60;;;;;;;13.36;100.00;99247.84;4816054;29;20033;-88
2024/03/12 17:07:08;;;;;;;6.53;3.03;;;;;;;13.35;100.00;99251.47;4843517;29;20416;-90
2024/03/12 17:09:41;;;;;;;22.60;11.05;;;;;;;13.21;100.00;99238.13;4854497;29;20042;-90
2024/03/12 17:12:34;;;;;;;8.93;3.25;;;;;;;13.22;100.00;99253.03;4861677;29;20105;-90
2024/03/12 17:15:10;;;;;;;10.88;4.82;;;;;;;13.19;100.00;99266.66;4853020;29;20045;-87
2024/03/12 17:18:30;;;;;;;49.67;27.80;;;;;;;13.14;100.00;99259.28;4865608;29;20519;-88
2024/03/12 17:21:09;;;;;;;28.70;18.27;;;;;;;13.09;100.00;99264.31;4842013;29;20050;-89
2024/03/12 17:23:38;;;;;;;42.50;26.90;;;;;;;13.10;100.00;99260.69;4840512;29;20046;-88
2024/03/12 17:30:38;;;;;;;30.08;20.95;;;;;;;13.03;100.00;99255.31;4808002;29;20048;-89
2024/03/12 17:33:33;;;;;;;36.58;24.20;;;;;;;13.07;100.00;99252.28;4833209;29;20065;-92
2024/03/12 17:52:41;;;;;;;17.60;10.25;;;;;;;12.84;100.00;99242.66;4819502;29;20053;-95
2024/03/12 17:59:38;;;;;;;10.48;5.63;;;;;;;12.82;100.00;99245.50;4834796;29;20519;-94
2024/03/12 18:21:55;;;;;;;11.90;7.90;;;;;;;12.77;100.00;99245.28;4847954;29;20044;-90
2024/03/12 18:24:32;;;;;;;15.52;6.97;;;;;;;12.84;100.00;99258.56;4837717;29;20414;-89
2024/03/12 18:27:04;;;;;;;19.23;10.38;;;;;;;12.85;100.00;99246.97;4833581;29;20034;-91
2024/03/12 18:29:37;;;;;;;30.27;17.48;;;;;;;12.83;100.00;99254.28;4850866;29;20038;-90
2024/03/12 18:36:04;;;;;;;47.45;29.25;;;;;;;12.74;100.00;99250.97;4839024;29;20057;-90
2024/03/12 18:43:03;;;;;;;28.90;18.08;;;;;;;12.69;100.00;99248.88;4847776;29;20131;-93
2024/03/12 18:46:01;;;;;;;28.33;17.13;;;;;;;12.69;100.00;99253.34;4823886;29;20046;-93
2024/03/12 18:48:55;;;;;;;32.47;17.50;;;;;;;12.65;100.00;99244.94;4852574;29;20077;-90
2024/03/12 18:51:48;;;;;;;36.30;21.27;;;;;;;12.64;100.00;99243.31;4826390;29;20045;-92
2024/03/12 18:54:44;;;;;;;33.03;22.58;;;;;;;12.61;100.00;99241.81;4834825;29;20114;-89
2024/03/12 18:58:13;;;;;;;41.17;21.23;;;;;;;12.63;100.00;99246.94;4833480;29;20045;-89
2024/03/12 19:01:38;;;;;;;20.95;12.65;;;;;;;12.54;100.00;99243.59;4836296;29;20119;-92
2024/03/12 19:05:31;;;;;;;16.38;10.00;;;;;;;12.50;100.00;99243.13;4797523;29;20067;-90
2024/03/12 19:12:54;;;;;;;9.57;6.32;;;;;;;12.46;100.00;99228.63;4801428;29;20417;-91
2024/03/12 19:19:58;;;;;;;7.32;3.03;;;;;;;12.42;100.00;99229.19;4801493;29;20046;-93
2024/03/12 19:23:02;;;;;;;6.68;2.55;;;;;;;12.39;100.00;99231.19;4789266;29;20314;-93
2024/03/12 19:25:42;;;;;;;6.55;2.78;;;;;;;12.39;100.00;99219.81;4774059;29;20141;-91
2024/03/12 19:28:32;;;;;;;4.82;2.70;;;;;;;12.37;100.00;99227.94;4800319;29;20042;-90
2024/03/12 19:31:50;;;;;;;8.32;3.72;;;;;;;12.32;100.00;99221.53;4794610;29;20034;-92
2024/03/12 19:34:25;;;;;;;5.70;2.13;;;;;;;12.30;100.00;99231.50;4802528;29;20563;-91
2024/03/12 19:37:01;;;;;;;3.45;2.47;;;;;;;12.32;100.00;99240.09;4806898;29;20058;-89
2024/03/12 19:39:50;;;;;;;7.00;3.75;;;;;;;12.36;100.00;99249.31;4809384;29;20061;-92
2024/03/12 19:52:13;;;;;;;10.55;5.32;;;;;;;12.33;100.00;99247.84;4837611;29;20045;-92
2024/03/12 19:55:30;;;;;;;8.23;3.08;;;;;;;12.27;100.00;99245.94;4793750;29;20075;-96
2024/03/12 19:58:26;;;;;;;15.70;9.50;;;;;;;12.26;100.00;99242.47;4813487;29;20117;-94
2024/03/12 20:06:03;;;;;;;17.95;7.38;;;;;;;12.20;100.00;99251.16;4840198;29;20052;-93
2024/03/12 20:22:30;;;;;;;;;;;;;;;;;;;;;
2024/03/12 21:07:20;;;;;;;10.77;2.42;;;;;;;12.01;100.00;99213.59;5862582;23;20278;-93
2024/03/12 21:18:33;;;;;;;11.45;2.13;;;;;;;11.91;100.00;99202.50;4806175;29;20061;-94
2024/03/12 21:26:35;;;;;;;17.95;3.40;;;;;;;12.01;100.00;99218.06;4770960;29;20138;-96
2024/03/12 21:40:36;;;;;;;13.60;2.63;;;;;;;11.99;100.00;99220.91;4721236;30;20043;-96
2024/03/12 21:43:58;;;;;;;8.18;1.67;;;;;;;11.99;100.00;99220.09;4756489;29;20047;-94
2024/03/12 21:47:25;;;;;;;11.98;2.95;;;;;;;11.97;100.00;99216.81;4794167;29;20090;-96
2024/03/12 21:50:13;;;;;;;14.68;4.28;;;;;;;11.90;100.00;99228.13;4783695;29;20055;-95
2024/03/12 21:54:03;;;;;;;13.50;6.13;;;;;;;11.93;100.00;99218.19;4808639;29;20045;-95
2024/03/12 21:57:32;;;;;;;6.90;2.40;;;;;;;11.89;100.00;99220.38;4813954;29;20478;-94
2024/03/12 22:04:21;;;;;;;11.73;5.03;;;;;;;11.89;100.00;99213.25;4823887;29;20042;-90
2024/03/12 22:16:51;;;;;;;9.98;3.40;;;;;;;11.78;100.00;99172.16;4721084;30;20048;-95
2024/03/12 22:19:56;;;;;;;12.38;3.40;;;;;;;11.77;100.00;99180.28;4744666;30;20055;-95
2024/03/12 22:23:37;;;;;;;;;;;;;;;;;;;;;
2024/03/12 22:31:13;;;;;;;;;;;;;;;;;;;;;
2024/03/12 22:34:30;;;;;;;14.40;3.45;;;;;;;11.65;100.00;99164.91;4712784;30;20706;-92
2024/03/12 23:17:04;;;;;;;9.73;1.70;;;;;;;11.73;100.00;99136.66;4705224;30;20571;-93
